Terminal Aerodrome Forecast
Issued by NWS Quad Cities IA IL

Home | Current Version | Previous Version | Text Only | Print | Product List | Glossary On
Versions: 1 2 3 4 5 6 7 8 9 10 11 12 13 14 15 16 17 18 19 20 21 22 23 24 25 26 27 28 29 30 31 32 33 34 35 36
000
FTUS43 KDVN 260705 AAA
TAFMLI
TAF AMD
KMLI 260705Z 2607/2706 17010KT P6SM VCSH OVC080
     FM260900 18007KT 4SM -SHRA BR OVC040
     FM261400 27009KT 5SM -SHRA BR OVC025
     FM261700 29013KT P6SM BKN015
     FM262100 29013KT 4SM -SHRA BR BKN015=

USA.gov is the U.S. government's official web portal to all federal, state and local government web resources and services.